Time;durP1;ratioP1;P1;durP2;ratioP2;P2;SDS_P1;SDS_P2;PMS_P1;PMS_P2;Temp;Humidity;BMP_temperature;BMP_pressure;BME280_temperature;BME280_humidity;BME280_pressure;Samples;Min_cycle;Max_cycle;Signal;HPM_P1;HPM_P2
2024/01/21 00:00:09;;;;;;;;;32.33;31.00;;;;;2.89;100.00;101628.72;4899066;29;45510;-82
2024/01/21 00:02:35;;;;;;;;;26.67;23.33;;;;;2.88;100.00;101632.13;4897587;29;44932;-83
2024/01/21 00:05:00;;;;;;;;;27.33;27.33;;;;;2.81;100.00;101616.84;4881029;29;44903;-83
2024/01/21 00:07:25;;;;;;;;;40.67;33.00;;;;;2.83;100.00;101603.78;4896671;29;47011;-83
2024/01/21 00:09:51;;;;;;;;;30.00;27.67;;;;;2.78;100.00;101601.78;4898977;29;44717;-83
2024/01/21 00:12:16;;;;;;;;;25.67;25.67;;;;;2.78;100.00;101617.53;4897997;28;57204;-83
2024/01/21 00:14:41;;;;;;;;;29.67;29.67;;;;;2.76;100.00;101623.53;4897429;29;45273;-83
2024/01/21 00:17:07;;;;;;;;;31.67;30.00;;;;;2.80;100.00;101629.06;4896340;29;47286;-83
2024/01/21 00:19:34;;;;;;;;;32.00;31.00;;;;;2.78;100.00;101591.28;5195938;23;45694;-81
2024/01/21 00:22:00;;;;;;;;;35.00;31.67;;;;;2.87;100.00;101616.28;4898684;28;44755;-83
2024/01/21 00:24:26;;;;;;;;;29.33;26.67;;;;;2.82;100.00;101616.00;4897525;28;44842;-82
2024/01/21 00:26:52;;;;;;;;;33.00;26.67;;;;;2.80;100.00;101609.75;4880912;29;47103;-83
2024/01/21 00:29:21;;;;;;;;;34.67;29.33;;;;;2.91;100.00;101627.09;4882343;29;45364;-82
2024/01/21 00:31:48;;;;;;;;;33.33;30.33;;;;;2.80;100.00;101605.41;4897266;29;44911;-83
2024/01/21 00:34:13;;;;;;;;;37.00;28.67;;;;;2.92;100.00;101633.22;4896905;29;45451;-82
2024/01/21 00:36:38;;;;;;;;;33.33;29.33;;;;;2.95;100.00;101631.69;4881862;29;47134;-82
2024/01/21 00:39:29;;;;;;;;;26.33;26.33;;;;;3.19;100.00;101633.94;4898402;28;44741;-83
2024/01/21 00:41:55;;;;;;;;;24.67;23.33;;;;;3.02;100.00;101621.56;4898827;29;44825;-82
2024/01/21 00:44:20;;;;;;;;;28.00;24.00;;;;;2.89;100.00;101601.50;4898187;29;45030;-82
2024/01/21 00:46:47;;;;;;;;;25.33;20.00;;;;;3.06;100.00;101610.41;4897550;29;47101;-82
2024/01/21 00:49:30;;;;;;;;;27.67;23.67;;;;;3.19;100.00;101607.66;4898504;29;44819;-83
2024/01/21 00:51:56;;;;;;;;;28.33;28.33;;;;;3.10;100.00;101625.53;4896998;29;44999;-81
2024/01/21 00:54:22;;;;;;;;;31.33;25.33;;;;;3.10;100.00;101622.91;4897930;29;44823;-82
2024/01/21 00:56:47;;;;;;;;;29.00;25.67;;;;;3.11;100.00;101623.00;4897899;29;46812;-82
2024/01/21 00:59:18;;;;;;;;;32.33;27.67;;;;;3.24;100.00;101623.72;4899234;29;45057;-83
2024/01/21 01:01:43;;;;;;;;;29.00;24.67;;;;;3.07;100.00;101635.84;4882368;29;44913;-83
2024/01/21 01:04:09;;;;;;;;;34.00;27.33;;;;;3.07;100.00;101638.47;4897755;29;45096;-83
2024/01/21 01:06:34;;;;;;;;;26.00;22.67;;;;;3.07;100.00;101638.47;4899176;29;45433;-82
2024/01/21 01:09:46;;;;;;;;;24.67;22.67;;;;;3.24;100.00;101631.59;4898852;29;45278;-81
2024/01/21 01:12:18;;;;;;;;;29.00;25.33;;;;;3.02;100.00;101632.06;4898523;28;44835;-82
2024/01/21 01:14:43;;;;;;;;;29.33;28.33;;;;;3.00;100.00;101632.84;4896536;29;44867;-81
2024/01/21 01:17:09;;;;;;;;;23.00;21.33;;;;;2.97;100.00;101629.16;4898382;28;45165;-82
2024/01/21 01:22:23;;;;;;;;;27.67;25.00;;;;;3.03;100.00;101621.66;4935821;23;45280;-82
2024/01/21 01:24:49;;;;;;;;;21.00;20.00;;;;;2.83;100.00;101627.41;4898258;29;44802;-81
2024/01/21 01:27:15;;;;;;;;;27.33;24.00;;;;;2.78;100.00;101629.78;4897939;28;46091;-81
2024/01/21 01:29:41;;;;;;;;;26.33;24.67;;;;;2.83;100.00;101628.34;4901854;29;45273;-81
2024/01/21 01:32:06;;;;;;;;;29.33;26.33;;;;;2.87;100.00;101630.34;4901501;29;44884;-81
2024/01/21 01:34:32;;;;;;;;;24.67;24.67;;;;;2.86;100.00;101625.88;4901648;29;44931;-81
2024/01/21 01:36:57;;;;;;;;;29.00;27.33;;;;;2.83;100.00;101617.84;4899766;29;47557;-80
2024/01/21 01:39:30;;;;;;;;;24.00;22.33;;;;;2.98;100.00;101625.72;4900370;28;45448;-81
2024/01/21 01:41:56;;;;;;;;;16.00;15.33;;;;;2.83;100.00;101616.91;4900490;28;44892;-81
2024/01/21 01:44:21;;;;;;;;;27.67;25.00;;;;;2.89;100.00;101630.41;4900401;29;44897;-82
2024/01/21 01:46:48;;;;;;;;;29.67;24.00;;;;;2.98;100.00;101634.50;4883588;29;47201;-82
2024/01/21 01:49:17;;;;;;;;;25.00;21.00;;;;;3.06;100.00;101644.56;4884029;29;45031;-81
2024/01/21 01:51:42;;;;;;;;;29.33;23.67;;;;;3.03;100.00;101647.94;4883300;29;44833;-82
2024/01/21 01:54:09;;;;;;;;;31.33;25.00;;;;;3.09;100.00;101642.09;4899288;29;45333;-80
2024/01/21 01:56:34;;;;;;;;;25.00;21.00;;;;;3.07;100.00;101641.09;4898968;29;46659;-83
2024/01/21 01:59:16;;;;;;;;;;;;;;;;;;;;;
2024/01/21 02:01:42;;;;;;;;;27.50;22.00;;;;;3.15;100.00;101653.91;4900579;29;68126;-81
2024/01/21 02:04:09;;;;;;;;;26.00;22.33;;;;;3.17;100.00;101668.03;4899540;29;44895;-83
2024/01/21 02:06:34;;;;;;;;;26.33;23.67;;;;;3.16;100.00;101654.81;4898306;29;47277;-82
2024/01/21 02:09:08;;;;;;;;;23.67;20.33;;;;;3.26;100.00;101659.78;4899707;29;44886;-83
2024/01/21 02:11:34;;;;;;;;;23.33;21.67;;;;;3.30;100.00;101647.72;4901530;28;44738;-82
2024/01/21 02:14:00;;;;;;;;;23.00;22.33;;;;;3.34;100.00;101650.59;4900600;28;44873;-82
2024/01/21 02:16:25;;;;;;;;;26.67;22.33;;;;;3.39;100.00;101648.22;4899218;29;45400;-83
2024/01/21 02:21:25;;;;;;;;;21.00;15.00;;;;;3.37;100.00;101653.44;4900340;23;45119;-83
2024/01/21 02:23:52;;;;;;;;;29.67;25.00;;;;;3.44;100.00;101638.00;4899473;29;44915;-81
2024/01/21 02:26:17;;;;;;;;;25.00;22.00;;;;;3.43;100.00;101646.69;4899603;29;45573;-81
2024/01/21 02:31:42;;;;;;;;;22.33;21.67;;;;;3.32;100.00;101631.22;4902450;29;44918;-82
2024/01/21 02:34:08;;;;;;;;;28.00;23.00;;;;;3.34;100.00;101624.31;4901339;29;44949;-82
2024/01/21 02:36:34;;;;;;;;;22.33;18.00;;;;;3.53;100.00;101654.28;4900796;28;45865;-82
2024/01/21 02:38:59;;;;;;;;;22.33;19.67;;;;;3.46;100.00;101654.78;4900042;29;45431;-80
2024/01/21 02:41:24;;;;;;;;;23.33;20.67;;;;;3.51;100.00;101650.66;4884410;29;45517;-81
2024/01/21 02:43:50;;;;;;;;;31.33;25.67;;;;;3.56;100.00;101665.00;4900432;29;45244;-81
2024/01/21 02:46:17;;;;;;;;;20.00;18.00;;;;;3.59;100.00;101660.78;4883254;29;47001;-82
2024/01/21 02:48:45;;;;;;;;;28.00;27.00;;;;;3.58;100.00;101644.97;4902361;28;45250;-83
2024/01/21 02:51:14;;;;;;;;;30.67;25.00;;;;;3.65;100.00;101639.19;4900718;29;44838;-80
2024/01/21 02:53:40;;;;;;;;;25.00;21.00;;;;;3.56;100.00;101641.34;4899917;29;45359;-82
2024/01/21 02:56:06;;;;;;;;;25.00;23.33;;;;;3.50;100.00;101623.47;4899873;29;45175;-82
2024/01/21 02:58:41;;;;;;;;;26.00;24.00;;;;;3.39;100.00;101612.34;4897733;29;44835;-83
2024/01/21 03:01:06;;;;;;;;;24.00;22.67;;;;;3.43;100.00;101620.41;4899363;29;45306;-81
2024/01/21 03:03:34;;;;;;;;;25.67;21.67;;;;;3.46;97.25;101613.59;4898744;29;44840;-82
2024/01/21 03:06:00;;;;;;;;;27.00;24.33;;;;;3.40;100.00;101606.25;4900247;28;45168;-81
2024/01/21 03:11:15;;;;;;;;;26.00;21.33;;;;;3.21;100.00;101582.34;4899203;29;44994;-81
2024/01/21 03:13:40;;;;;;;;;16.33;14.00;;;;;3.26;100.00;101588.78;4881384;29;45260;-81
2024/01/21 03:16:06;;;;;;;;;22.67;19.67;;;;;3.24;100.00;101590.44;4881847;29;47585;-82
2024/01/21 03:18:32;;;;;;;;;21.67;17.67;;;;;3.29;100.00;101615.28;4882991;29;46136;-82
2024/01/21 03:20:58;;;;;;;;;22.33;22.33;;;;;3.33;100.00;101622.53;4897815;28;44870;-82
2024/01/21 03:23:23;;;;;;;;;28.33;24.00;;;;;3.35;100.00;101610.38;4898009;28;45050;-82
2024/01/21 03:25:49;;;;;;;;;30.67;24.00;;;;;3.32;100.00;101625.06;4897204;28;45579;-82
2024/01/21 03:28:14;;;;;;;;;28.33;28.33;;;;;3.39;100.00;101643.91;4882007;29;44738;-82
2024/01/21 03:30:40;;;;;;;;;24.33;22.67;;;;;3.40;100.00;101640.44;4900176;29;45100;-82
2024/01/21 03:33:05;;;;;;;;;26.00;24.00;;;;;3.44;100.00;101656.41;4883214;29;44879;-82
2024/01/21 03:35:30;;;;;;;;;19.33;18.00;;;;;3.43;100.00;101646.69;4897491;28;46768;-82
2024/01/21 03:37:56;;;;;;;;;29.00;23.00;;;;;3.50;100.00;101644.50;4898018;29;44824;-82
2024/01/21 03:40:21;;;;;;;;;21.67;20.67;;;;;3.60;100.00;101662.63;4898896;28;45300;-82
2024/01/21 03:42:47;;;;;;;;;22.00;21.67;;;;;3.58;100.00;101645.84;4897538;28;44958;-82
2024/01/21 03:45:13;;;;;;;;;11.00;11.00;;;;;3.60;100.00;101651.22;4896705;29;47543;-82
2024/01/21 03:47:38;;;;;;;;;20.67;18.67;;;;;3.64;100.00;101663.72;4878222;29;44867;-81
2024/01/21 03:50:07;;;;;;;;;15.00;15.00;;;;;3.73;100.00;101660.69;4882875;29;44744;-81
2024/01/21 03:52:32;;;;;;;;;18.00;18.00;;;;;3.73;100.00;101669.47;4881283;29;44914;-81
2024/01/21 03:54:57;;;;;;;;;15.67;15.00;;;;;3.74;100.00;101660.78;4864492;29;56669;-81
2024/01/21 03:57:23;;;;;;;;;21.67;18.67;;;;;3.84;100.00;101663.91;4880210;29;44848;-82
2024/01/21 03:59:58;;;;;;;;;19.33;19.33;;;;;3.90;100.00;101653.72;4865655;29;44864;-82
2024/01/21 04:02:24;;;;;;;;;15.33;12.00;;;;;3.92;100.00;101653.00;4880507;29;45180;-82
2024/01/21 04:04:52;;;;;;;;;18.67;18.67;;;;;3.96;100.00;101640.94;4864460;29;47677;-81
2024/01/21 04:07:17;;;;;;;;;24.00;21.00;;;;;3.96;100.00;101628.69;4880348;29;45487;-80
2024/01/21 04:09:43;;;;;;;;;21.33;21.00;;;;;4.00;100.00;101632.38;4880437;29;44900;-81
2024/01/21 04:12:11;;;;;;;;;20.33;19.33;;;;;4.15;100.00;101619.16;4879480;29;45475;-81
2024/01/21 04:14:36;;;;;;;;;19.67;19.00;;;;;4.09;100.00;101614.44;4881101;29;46273;-82
2024/01/21 04:17:02;;;;;;;;;20.00;20.00;;;;;4.12;100.00;101593.56;4880501;29;45154;-82
2024/01/21 04:22:13;;;;;;;;;13.33;12.67;;;;;4.30;100.00;101588.38;4708590;26;45343;-82
2024/01/21 04:24:38;;;;;;;;;21.33;17.00;;;;;4.10;100.00;101579.41;4886558;29;45587;-82
2024/01/21 04:27:04;;;;;;;;;22.33;22.00;;;;;4.14;100.00;101578.75;4902436;29;45114;-82
2024/01/21 04:29:30;;;;;;;;;18.00;18.00;;;;;4.17;100.00;101589.44;4920276;29;45025;-81
2024/01/21 04:31:55;;;;;;;;;22.00;21.33;;;;;4.19;100.00;101569.34;4918408;28;45396;-81
2024/01/21 04:34:20;;;;;;;;;19.00;16.33;;;;;4.18;100.00;101567.56;4901102;29;46982;-83
2024/01/21 04:36:46;;;;;;;;;23.33;19.00;;;;;4.26;100.00;101577.59;4901949;29;44863;-82
2024/01/21 04:39:19;;;;;;;;;22.67;18.00;;;;;4.32;100.00;101588.44;4901645;29;44788;-82
2024/01/21 04:41:44;;;;;;;;;19.67;18.00;;;;;4.31;100.00;101586.66;4903173;29;44959;-82
2024/01/21 04:44:10;;;;;;;;;18.00;17.33;;;;;4.35;100.00;101593.88;4902510;29;47434;-82
2024/01/21 04:46:35;;;;;;;;;21.67;16.33;;;;;4.31;100.00;101584.91;4902182;29;44799;-81
2024/01/21 04:49:03;;;;;;;;;21.33;19.00;;;;;4.41;100.00;101578.41;4902105;29;44835;-81
2024/01/21 04:51:28;;;;;;;;;19.67;18.67;;;;;4.28;100.00;101562.78;4904963;29;44847;-79
2024/01/21 04:54:16;;;;;;;;;18.00;18.00;;;;;4.52;100.00;101563.16;4918275;28;45059;-81
2024/01/21 04:56:41;;;;;;;;;13.67;12.33;;;;;4.36;100.00;101566.72;4901157;29;44871;-81
2024/01/21 04:59:09;;;;;;;;;21.33;16.67;;;;;4.41;100.00;101570.50;4901809;29;44920;-82
2024/01/21 05:01:35;;;;;;;;;21.67;15.00;;;;;4.34;100.00;101542.03;4901325;29;44937;-82
2024/01/21 05:04:00;;;;;;;;;17.00;15.00;;;;;4.47;100.00;101544.47;4920343;28;45000;-82
2024/01/21 05:06:26;;;;;;;;;22.67;16.00;;;;;4.48;100.00;101545.38;4904116;29;44931;-81
2024/01/21 05:08:54;;;;;;;;;13.33;11.67;;;;;4.55;100.00;101561.59;4906009;29;44669;-81
2024/01/21 05:11:20;;;;;;;;;17.33;14.33;;;;;4.55;100.00;101553.69;4906213;29;45055;-81
2024/01/21 05:13:46;;;;;;;;;14.67;12.33;;;;;4.63;100.00;101546.19;4922331;28;46086;-81
2024/01/21 05:16:11;;;;;;;;;16.67;15.33;;;;;4.61;100.00;101538.19;4905084;29;44839;-81
2024/01/21 05:18:39;;;;;;;;;14.00;13.33;;;;;4.69;100.00;101535.06;4922700;28;44889;-82
2024/01/21 05:24:00;;;;;;;;;18.33;16.00;;;;;4.83;100.00;101541.91;4918545;28;45282;-82
2024/01/21 05:26:26;;;;;;;;;14.67;14.67;;;;;4.71;100.00;101533.41;4904638;29;45384;-82
2024/01/21 05:29:00;;;;;;;;;22.00;15.67;;;;;4.75;100.00;101524.81;4890778;29;44760;-82
2024/01/21 05:31:28;;;;;;;;;16.00;14.00;;;;;4.58;100.00;101516.03;4906828;29;44995;-81
2024/01/21 05:34:47;;;;;;;;;13.33;11.67;;;;;4.86;100.00;101518.34;4905234;29;47663;-81
2024/01/21 05:37:12;;;;;;;;;20.67;17.67;;;;;4.67;100.00;101523.53;4904344;29;44900;-82
2024/01/21 05:39:38;;;;;;;;;15.00;15.00;;;;;4.63;100.00;101534.75;4905235;29;45220;-81
2024/01/21 05:42:05;;;;;;;;;18.33;16.00;;;;;4.60;100.00;101543.38;4921043;28;45230;-82
2024/01/21 05:44:30;;;;;;;;;16.67;16.67;;;;;4.62;100.00;101544.34;4904969;29;47350;-81
2024/01/21 05:46:56;;;;;;;;;13.00;11.33;;;;;4.67;100.00;101539.34;4904928;29;44766;-81
2024/01/21 05:49:23;;;;;;;;;13.67;12.00;;;;;4.68;100.00;101525.31;4905906;29;45221;-82
2024/01/21 05:51:49;;;;;;;;;18.67;17.33;;;;;4.68;100.00;101514.78;4905721;29;45215;-81
2024/01/21 05:54:14;;;;;;;;;18.67;17.33;;;;;4.69;100.00;101550.88;4904062;29;46830;-82
2024/01/21 05:56:47;;;;;;;;;15.00;11.67;;;;;4.73;100.00;101564.25;4905748;29;44842;-82
2024/01/21 05:59:20;;;;;;;;;12.67;11.00;;;;;4.89;100.00;101552.75;4905366;28;45418;-82
2024/01/21 06:01:50;;;;;;;;;18.00;18.00;;;;;4.93;100.00;101530.09;4905435;28;45025;-81
2024/01/21 06:04:16;;;;;;;;;15.67;13.33;;;;;4.80;100.00;101525.94;4904853;28;48505;-81
2024/01/21 06:06:42;;;;;;;;;14.67;12.00;;;;;4.80;100.00;101518.03;4904448;29;45364;-80
2024/01/21 06:09:08;;;;;;;;;14.67;12.67;;;;;4.79;100.00;101534.69;4903860;29;44815;-81
2024/01/21 06:11:34;;;;;;;;;11.00;11.00;;;;;4.85;100.00;101531.44;4889394;29;44788;-82
2024/01/21 06:14:00;;;;;;;;;15.33;13.67;;;;;4.74;100.00;101549.34;4886890;29;47247;-81
2024/01/21 06:16:25;;;;;;;;;15.00;12.00;;;;;4.81;100.00;101567.28;4904111;29;44845;-82
2024/01/21 06:21:48;;;;;;;;;15.33;13.33;;;;;4.90;100.00;101551.91;5517654;23;46600;-82
2024/01/21 06:24:14;;;;;;;;;12.00;12.00;;;;;4.74;100.00;101538.81;4879302;29;47139;-82
2024/01/21 06:26:40;;;;;;;;;15.00;12.33;;;;;4.84;100.00;101535.81;4878150;29;44921;-83
2024/01/21 06:29:07;;;;;;;;;15.00;13.00;;;;;4.77;100.00;101538.97;4862239;29;44961;-83
2024/01/21 06:31:33;;;;;;;;;12.33;12.33;;;;;4.78;100.00;101535.50;4878314;29;44935;-83
2024/01/21 06:33:59;;;;;;;;;12.00;12.00;;;;;4.78;100.00;101546.03;4862464;29;45016;-83
2024/01/21 06:36:25;;;;;;;;;18.33;15.00;;;;;4.78;100.00;101524.97;4863621;29;44921;-82
2024/01/21 06:38:50;;;;;;;;;4.00;4.00;;;;;4.78;100.00;101535.50;4877768;29;44848;-83
2024/01/21 06:41:15;;;;;;;;;6.33;6.33;;;;;4.85;100.00;101545.53;4863143;29;44936;-83
2024/01/21 06:43:41;;;;;;;;;12.33;12.33;;;;;4.82;100.00;101532.19;4878762;29;47058;-82
2024/01/21 06:46:08;;;;;;;;;14.33;13.33;;;;;4.75;100.00;101528.34;4862126;29;45284;-82
2024/01/21 06:48:33;;;;;;;;;13.00;11.33;;;;;4.82;100.00;101537.47;4861609;29;44776;-83
2024/01/21 06:50:58;;;;;;;;;15.67;14.33;;;;;4.87;100.00;101562.31;4861677;29;45348;-83
2024/01/21 06:53:24;;;;;;;;;15.00;12.00;;;;;4.92;100.00;101573.09;4846643;29;47668;-82
2024/01/21 06:55:49;;;;;;;;;12.67;12.67;;;;;4.90;100.00;101575.63;4861245;29;45134;-83
2024/01/21 06:58:16;;;;;;;;;15.67;12.00;;;;;5.00;100.00;101572.63;4861900;29;44835;-82
2024/01/21 07:00:51;;;;;;;;;13.00;9.00;;;;;4.92;100.00;101581.91;4862922;29;44996;-82
2024/01/21 07:03:16;;;;;;;;;12.33;10.33;;;;;4.91;100.00;101577.47;4861447;29;47077;-82
2024/01/21 07:05:48;;;;;;;;;15.00;13.00;;;;;4.90;100.00;101566.84;4877297;29;45009;-83
2024/01/21 07:08:13;;;;;;;;;12.33;11.00;;;;;4.93;100.00;101578.44;4877548;29;44767;-83
2024/01/21 07:10:39;;;;;;;;;14.33;13.00;;;;;4.98;100.00;101590.09;4864313;29;45114;-83
2024/01/21 07:13:11;;;;;;;;;14.00;13.67;;;;;5.05;100.00;101608.88;4877993;29;47128;-82
2024/01/21 07:15:36;;;;;;;;;13.67;12.00;;;;;5.04;100.00;101596.53;4878570;29;44932;-83
2024/01/21 07:18:02;;;;;;;;;15.00;13.33;;;;;5.00;100.00;101575.28;4862526;29;44744;-83
2024/01/21 07:20:28;;;;;;;;;13.00;13.00;;;;;5.00;100.00;101572.63;4866840;29;44861;-83
2024/01/21 07:22:55;;;;;;;;;15.67;12.67;;;;;5.51;100.00;101568.94;4823248;29;46745;-83
2024/01/21 07:25:21;;;;;;;;;17.67;15.00;;;;;5.33;100.00;101585.69;4824928;29;45244;-82
2024/01/21 07:27:46;;;;;;;;;15.00;14.33;;;;;5.26;100.00;101598.50;4825998;29;44825;-82
2024/01/21 07:30:12;;;;;;;;;16.33;15.67;;;;;5.19;100.00;101600.84;4824398;29;44910;-82
2024/01/21 07:32:39;;;;;;;;;15.00;15.00;;;;;5.27;100.00;101600.31;4825180;29;47101;-83
2024/01/21 07:35:06;;;;;;;;;24.00;18.33;;;;;5.15;100.00;101590.97;4825281;29;45379;-82
2024/01/21 07:37:31;;;;;;;;;19.33;18.00;;;;;5.09;100.00;101582.75;4827153;29;44790;-82
2024/01/21 07:39:56;;;;;;;;;20.00;18.33;;;;;5.14;100.00;101604.06;4825783;29;45353;-82
2024/01/21 07:42:22;;;;;;;;;13.67;13.67;;;;;5.23;100.00;101615.06;4824139;29;47169;-82
2024/01/21 07:44:47;;;;;;;;;21.00;15.67;;;;;5.24;100.00;101611.59;4824170;29;44769;-82
2024/01/21 07:47:14;;;;;;;;;13.33;13.33;;;;;5.44;100.00;101630.16;4826923;29;44815;-82
2024/01/21 07:49:40;;;;;;;;;6.00;6.00;;;;;5.37;100.00;101639.50;4826309;29;48236;-81
2024/01/21 07:52:05;;;;;;;;;17.33;15.67;;;;;5.41;100.00;101647.66;4825039;29;46992;-82
2024/01/21 07:54:31;;;;;;;;;13.00;12.00;;;;;5.37;100.00;101640.41;4825194;29;45180;-81
2024/01/21 07:57:49;;;;;;;;;15.33;12.00;;;;;5.62;100.00;101646.88;4825154;29;44957;-81
2024/01/21 08:00:15;;;;;;;;;16.67;16.00;;;;;5.42;100.00;101651.19;4824479;29;44961;-81
2024/01/21 08:02:41;;;;;;;;;8.50;8.50;;;;;5.54;100.00;101664.09;4823981;29;47745;-82
2024/01/21 08:05:06;;;;;;;;;15.00;15.00;;;;;5.59;100.00;101652.00;4824192;29;44878;-82
2024/01/21 08:10:54;;;;;;;;;13.67;13.67;;;;;5.53;100.00;101649.06;4826154;29;44834;-81
2024/01/21 08:13:19;;;;;;;;;16.00;13.33;;;;;5.53;100.00;101662.25;4825395;29;47440;-82
2024/01/21 08:15:46;;;;;;;;;10.67;10.67;;;;;5.53;100.00;101651.69;4825111;29;44850;-82
2024/01/21 08:18:13;;;;;;;;;18.67;18.67;;;;;5.55;100.00;101637.75;4823312;29;45387;-82
2024/01/21 08:20:38;;;;;;;;;15.33;15.33;;;;;5.52;100.00;101647.28;4832765;29;44902;-81
2024/01/21 08:23:04;;;;;;;;;12.33;12.33;;;;;5.56;100.00;101651.88;4823721;29;46627;-80
2024/01/21 08:25:29;;;;;;;;;17.00;12.67;;;;;5.59;100.00;101663.50;4824120;29;44759;-81
2024/01/21 08:27:54;;;;;;;;;21.00;20.00;;;;;5.57;100.00;101669.50;4823327;29;45146;-82
2024/01/21 08:30:20;;;;;;;;;16.33;16.33;;;;;5.70;100.00;101687.75;4823621;29;45339;-81
2024/01/21 08:32:45;;;;;;;;;16.00;16.00;;;;;5.67;100.00;101698.16;4823284;29;47184;-81
2024/01/21 08:35:10;;;;;;;;;13.00;13.00;;;;;5.70;100.00;101702.69;4823918;29;44996;-81
2024/01/21 08:37:36;;;;;;;;;16.00;14.33;;;;;5.73;100.00;101709.00;4809308;29;44946;-82
2024/01/21 08:40:04;;;;;;;;;13.67;12.33;;;;;5.78;100.00;101711.88;4827614;29;44933;-81
2024/01/21 08:42:29;;;;;;;;;15.00;12.00;;;;;5.87;100.00;101721.97;4827592;29;47146;-81
2024/01/21 08:44:54;;;;;;;;;12.00;12.00;;;;;5.94;100.00;101739.94;4827492;29;44914;-81
2024/01/21 08:47:20;;;;;;;;;17.00;16.33;;;;;5.98;100.00;101741.94;4828066;29;44948;-82
2024/01/21 08:49:45;;;;;;;;;10.67;10.67;;;;;6.06;100.00;101755.50;4827872;29;44859;-82
2024/01/21 08:52:10;;;;;;;;;13.00;13.00;;;;;6.14;100.00;101747.13;4827761;29;46729;-81
2024/01/21 08:54:36;;;;;;;;;14.33;13.67;;;;;6.21;100.00;101732.47;4827091;29;45402;-82
2024/01/21 08:57:01;;;;;;;;;17.33;13.33;;;;;6.16;100.00;101732.25;4827654;29;44963;-81
2024/01/21 08:59:27;;;;;;;;;13.67;13.67;;;;;6.15;100.00;101725.16;4827754;29;44955;-82
2024/01/21 09:01:53;;;;;;;;;15.33;12.33;;;;;6.23;100.00;101743.13;4827355;29;46730;-83
2024/01/21 09:04:19;;;;;;;;;12.00;12.00;;;;;6.21;100.00;101741.28;4828573;29;44838;-82
2024/01/21 09:06:45;;;;;;;;;15.33;13.00;;;;;6.21;100.00;101729.84;4826932;29;45002;-82
2024/01/21 09:09:13;;;;;;;;;13.00;10.00;;;;;6.19;100.00;101715.66;4826990;29;45202;-81
2024/01/21 09:11:40;;;;;;;;;15.33;13.00;;;;;6.19;100.00;101721.81;4826958;29;47886;-81
2024/01/21 09:14:06;;;;;;;;;20.00;16.00;;;;;6.31;100.00;101723.25;4826626;29;44887;-82
2024/01/21 09:16:32;;;;;;;;;16.00;16.00;;;;;6.36;100.00;101737.56;4826839;29;44904;-81
2024/01/21 09:18:58;;;;;;;;;20.33;16.00;;;;;6.38;100.00;101723.63;4827392;29;44862;-81
2024/01/21 09:21:32;;;;;;;;;15.67;13.00;;;;;6.52;100.00;101740.09;4811797;29;45508;-81
2024/01/21 09:24:01;;;;;;;;;13.00;13.00;;;;;6.44;100.00;101728.25;4827101;29;44748;-82
2024/01/21 09:26:29;;;;;;;;;16.67;15.00;;;;;6.42;100.00;101727.28;4828691;29;45044;-81
2024/01/21 09:28:55;;;;;;;;;15.33;14.67;;;;;6.53;100.00;101731.34;4811417;29;44755;-83
2024/01/21 09:31:20;;;;;;;;;18.33;13.67;;;;;6.60;100.00;101725.53;4826964;29;45152;-81
2024/01/21 09:33:45;;;;;;;;;15.33;13.33;;;;;6.68;100.00;101723.19;4811521;29;44994;-81
2024/01/21 09:36:11;;;;;;;;;17.00;14.67;;;;;6.80;100.00;101704.34;4828317;29;45099;-81
2024/01/21 09:38:37;;;;;;;;;13.00;12.00;;;;;6.85;100.00;101716.06;4828546;29;45320;-82
2024/01/21 09:41:25;;;;;;;;;14.00;13.67;;;;;7.13;100.00;101719.91;4811298;29;47237;-80
2024/01/21 09:43:50;;;;;;;;;22.33;16.67;;;;;7.04;100.00;101716.88;4802220;29;45177;-83
2024/01/21 09:46:16;;;;;;;;;17.67;13.00;;;;;7.03;100.00;101720.34;4812058;29;45296;-81
2024/01/21 09:48:41;;;;;;;;;12.33;12.00;;;;;7.10;100.00;101719.78;4812401;29;45139;-81
2024/01/21 09:51:08;;;;;;;;;12.67;10.67;;;;;7.11;100.00;101719.84;4829289;29;45526;-82
2024/01/21 09:53:34;;;;;;;;;18.67;15.33;;;;;7.24;100.00;101720.38;4828387;29;44930;-82
2024/01/21 09:56:09;;;;;;;;;13.00;13.00;;;;;7.40;100.00;101715.81;4812927;29;44974;-82
2024/01/21 09:58:44;;;;;;;;;14.00;14.00;;;;;7.41;100.00;101714.97;4811034;29;44907;-82
2024/01/21 10:01:09;;;;;;;;;16.00;13.67;;;;;7.38;100.00;101725.44;4812757;29;46968;-82
2024/01/21 10:03:35;;;;;;;;;12.67;12.67;;;;;7.60;100.00;101748.41;4813005;29;44829;-82
2024/01/21 10:06:08;;;;;;;;;14.67;14.00;;;;;7.77;100.00;101757.06;4812740;29;44813;-82
2024/01/21 10:08:39;;;;;;;;;11.67;8.33;;;;;7.75;100.00;101764.03;4827867;29;44980;-83
2024/01/21 10:11:04;;;;;;;;;16.00;16.00;;;;;7.59;100.00;101757.22;4811945;29;47430;-82
2024/01/21 10:13:31;;;;;;;;;15.67;15.67;;;;;7.64;100.00;101752.09;4811721;29;44786;-82
2024/01/21 10:15:57;;;;;;;;;13.67;13.67;;;;;7.53;100.00;101753.38;4813565;29;44815;-82
2024/01/21 10:18:23;;;;;;;;;15.33;13.00;;;;;7.52;100.00;101756.88;4813162;29;45346;-81
2024/01/21 10:20:48;;;;;;;;;13.67;13.67;;;;;7.54;100.00;101747.25;4812614;29;47110;-82
2024/01/21 10:23:13;;;;;;;;;17.00;17.00;;;;;7.51;100.00;101755.06;4821279;29;44830;-82
2024/01/21 10:25:44;;;;;;;;;11.67;10.00;;;;;7.53;100.00;101746.34;4828048;29;44987;-82
2024/01/21 10:28:13;;;;;;;;;20.67;16.00;;;;;7.47;100.00;101737.25;4828556;29;44873;-82
2024/01/21 10:30:39;;;;;;;;;17.33;16.00;;;;;7.37;100.00;101731.56;4826459;29;47364;-81
2024/01/21 10:33:06;;;;;;;;;19.00;18.67;;;;;7.46;100.00;101732.81;4827513;29;45137;-83
2024/01/21 10:35:31;;;;;;;;;13.00;13.00;;;;;7.48;100.00;101720.53;4827913;29;44879;-82
2024/01/21 10:37:58;;;;;;;;;13.00;13.00;;;;;7.50;100.00;101702.97;4829621;29;44978;-82
2024/01/21 10:40:25;;;;;;;;;17.67;14.33;;;;;7.60;100.00;101703.41;4828738;29;47611;-82
2024/01/21 10:42:55;;;;;;;;;14.67;14.67;;;;;7.82;100.00;101702.56;4826682;29;45140;-82
2024/01/21 10:45:25;;;;;;;;;13.67;13.00;;;;;7.87;100.00;101694.78;4827330;29;44916;-82
2024/01/21 10:47:52;;;;;;;;;11.00;10.00;;;;;7.85;100.00;101695.56;4826599;29;45177;-82
2024/01/21 10:50:24;;;;;;;;;15.00;14.00;;;;;7.93;100.00;101700.31;4828240;29;45578;-82
2024/01/21 10:52:51;;;;;;;;;11.67;10.67;;;;;8.00;100.00;101685.59;4813309;29;44980;-83
2024/01/21 10:55:17;;;;;;;;;15.33;11.33;;;;;8.05;100.00;101683.13;4827730;29;44852;-82
2024/01/21 10:57:43;;;;;;;;;18.00;18.00;;;;;8.24;100.00;101697.97;4828114;29;44819;-82
2024/01/21 11:00:09;;;;;;;;;15.00;13.33;;;;;8.29;100.00;101684.06;4826681;29;47059;-82
2024/01/21 11:02:34;;;;;;;;;16.00;11.00;;;;;8.32;100.00;101683.28;4825942;29;45167;-83
2024/01/21 11:05:01;;;;;;;;;14.00;13.33;;;;;8.38;100.00;101683.50;4828564;29;44997;-83
2024/01/21 11:07:27;;;;;;;;;18.67;14.67;;;;;8.44;100.00;101694.38;4827680;29;45259;-82
2024/01/21 11:09:57;;;;;;;;;14.00;13.33;;;;;8.64;100.00;101692.50;4826869;29;47206;-82
2024/01/21 11:12:22;;;;;;;;;16.67;14.33;;;;;8.52;100.00;101697.34;4825995;29;45111;-80
2024/01/21 11:14:48;;;;;;;;;14.00;13.33;;;;;8.50;100.00;101702.56;4826492;29;44916;-81
2024/01/21 11:17:17;;;;;;;;;13.67;11.33;;;;;8.55;100.00;101711.63;4826342;29;45470;-81
2024/01/21 11:19:43;;;;;;;;;14.33;14.33;;;;;8.49;100.00;101711.38;4824794;29;47136;-82
2024/01/21 11:22:13;;;;;;;;;15.33;12.67;;;;;8.55;100.00;101692.16;4827346;29;44808;-82
2024/01/21 11:24:40;;;;;;;;;12.33;10.67;;;;;8.53;100.00;101710.66;4826821;29;44918;-83
2024/01/21 11:27:24;;;;;;;;;14.67;13.00;;;;;8.66;100.00;101704.06;4827715;29;44854;-83
2024/01/21 11:29:53;;;;;;;;;11.00;10.33;;;;;8.56;100.00;101708.13;4827387;29;45032;-83
2024/01/21 11:32:25;;;;;;;;;15.00;14.00;;;;;8.69;100.00;101697.97;4826789;29;45405;-81
2024/01/21 11:34:51;;;;;;;;;14.67;13.67;;;;;8.65;100.00;101698.72;4825796;29;45509;-82